createdAt,value
2023-05-27T00:01:45.915Z,7.03
2023-05-27T00:04:16.693Z,7.65
2023-05-27T00:06:45.988Z,7.25
2023-05-27T00:09:15.190Z,4.75
2023-05-27T00:11:44.324Z,9.63
2023-05-27T00:14:14.658Z,5.80
2023-05-27T00:16:43.887Z,4.97
2023-05-27T00:19:13.100Z,6.45
2023-05-27T00:21:43.640Z,5.07
2023-05-27T00:24:12.817Z,7.00
2023-05-27T00:26:42.227Z,7.22
2023-05-27T00:29:11.295Z,4.63
2023-05-27T00:31:40.548Z,4.93
2023-05-27T00:34:09.905Z,6.60
2023-05-27T00:36:39.028Z,6.32
2023-05-27T00:39:09.599Z,4.28
2023-05-27T00:41:39.136Z,5.32
2023-05-27T00:44:08.302Z,5.65
2023-05-27T00:46:37.688Z,5.13
2023-05-27T00:49:07.254Z,4.45
2023-05-27T00:51:37.475Z,3.97
2023-05-27T00:54:09.629Z,7.53
2023-05-27T00:56:39.204Z,5.15
2023-05-27T00:59:08.482Z,5.85
2023-05-27T01:01:40.193Z,7.95
2023-05-27T01:04:13.964Z,5.78
2023-05-27T01:06:50.698Z,10.48
2023-05-27T01:09:27.213Z,6.43
2023-05-27T01:12:04.535Z,6.28
2023-05-27T01:14:36.321Z,10.00
2023-05-27T01:17:09.035Z,6.13
2023-05-27T01:19:43.733Z,7.97
2023-05-27T01:22:15.059Z,8.13
2023-05-27T01:27:16.441Z,8.32
2023-05-27T01:29:46.218Z,6.85
2023-05-27T01:32:19.263Z,7.50
2023-05-27T01:34:56.539Z,8.00
2023-05-27T01:37:28.461Z,8.02
2023-05-27T01:39:59.347Z,7.10
2023-05-27T01:42:28.640Z,5.78
2023-05-27T01:44:58.689Z,8.02
2023-05-27T01:47:28.350Z,8.00
2023-05-27T01:49:58.004Z,9.95
2023-05-27T01:52:27.155Z,5.85
2023-05-27T01:54:56.275Z,4.88
2023-05-27T01:57:28.480Z,5.60
2023-05-27T01:59:57.622Z,5.15
2023-05-27T02:02:26.908Z,5.55
2023-05-27T02:04:56.086Z,7.30
2023-05-27T02:07:25.188Z,5.82
2023-05-27T02:09:54.361Z,5.63
2023-05-27T02:12:23.534Z,5.85
2023-05-27T02:14:54.129Z,6.13
2023-05-27T02:17:25.666Z,6.63
2023-05-27T02:19:56.315Z,7.70
2023-05-27T02:22:25.769Z,5.85
2023-05-27T02:24:54.895Z,5.80
2023-05-27T02:27:24.048Z,4.00
2023-05-27T02:29:54.859Z,7.07
2023-05-27T02:32:24.017Z,6.00
2023-05-27T02:34:53.120Z,5.30
2023-05-27T02:37:22.498Z,5.53
2023-05-27T02:39:51.635Z,5.60
2023-05-27T02:42:20.721Z,5.75
2023-05-27T02:44:50.252Z,4.65
2023-05-27T02:47:21.539Z,5.28
2023-05-27T02:49:50.650Z,5.65
2023-05-27T02:52:20.281Z,5.88
2023-05-27T02:54:49.393Z,3.38
2023-05-27T02:57:20.026Z,5.25
2023-05-27T02:59:49.251Z,4.50
2023-05-27T03:02:18.889Z,3.45
2023-05-27T03:04:50.116Z,4.45
2023-05-27T03:07:19.204Z,5.50
2023-05-27T03:09:48.350Z,4.78
2023-05-27T03:12:17.458Z,4.18
2023-05-27T03:14:46.715Z,3.72
2023-05-27T03:17:17.529Z,4.65
2023-05-27T03:19:51.032Z,7.95
2023-05-27T03:22:20.287Z,3.67
2023-05-27T03:24:49.686Z,4.05
2023-05-27T03:27:18.856Z,6.97
2023-05-27T03:29:48.802Z,5.47
2023-05-27T03:32:18.098Z,5.28
2023-05-27T03:34:51.280Z,5.22
2023-05-27T03:37:20.461Z,5.15
2023-05-27T03:40:04.369Z,8.02
2023-05-27T03:42:35.876Z,4.72
2023-05-27T03:45:05.442Z,6.03
2023-05-27T03:47:35.958Z,5.88
2023-05-27T03:50:08.135Z,2.95
2023-05-27T03:52:37.405Z,4.55
2023-05-27T03:55:07.432Z,5.28
2023-05-27T03:57:37.565Z,2.67
2023-05-27T04:00:09.643Z,3.53
2023-05-27T04:02:51.440Z,5.97
2023-05-27T04:05:22.169Z,3.40
2023-05-27T04:07:52.908Z,4.95
2023-05-27T04:10:22.111Z,6.18
2023-05-27T04:12:51.274Z,4.18
2023-05-27T04:15:20.767Z,4.03
2023-05-27T04:17:49.963Z,4.85
2023-05-27T04:20:19.172Z,5.32
2023-05-27T04:22:54.696Z,4.40
2023-05-27T04:25:24.059Z,4.37
2023-05-27T04:28:13.743Z,4.38
2023-05-27T04:30:48.552Z,2.80
2023-05-27T04:33:26.000Z,4.97
2023-05-27T04:35:57.348Z,2.67
2023-05-27T04:38:32.451Z,3.95
2023-05-27T04:41:06.392Z,2.63
2023-05-27T04:43:53.174Z,3.60
2023-05-27T04:46:27.708Z,5.38
2023-05-27T04:48:56.933Z,2.03
2023-05-27T04:51:26.057Z,4.38
2023-05-27T04:53:57.524Z,5.15
2023-05-27T04:56:28.306Z,3.63
2023-05-27T04:58:57.758Z,3.65
2023-05-27T05:01:40.706Z,4.22
2023-05-27T05:04:17.367Z,2.08
2023-05-27T05:06:51.820Z,2.20
2023-05-27T05:09:23.275Z,5.10
2023-05-27T05:11:53.263Z,3.72
2023-05-27T05:14:22.521Z,4.88
2023-05-27T05:16:51.648Z,4.93
2023-05-27T05:19:21.559Z,5.47
2023-05-27T05:21:51.824Z,6.38
2023-05-27T05:24:22.916Z,2.58
2023-05-27T05:26:52.139Z,3.28
2023-05-27T05:29:33.919Z,2.60
2023-05-27T05:32:10.187Z,2.30
2023-05-27T05:34:39.492Z,3.35
2023-05-27T05:37:12.186Z,3.85
2023-05-27T05:39:44.118Z,2.95
2023-05-27T05:42:13.732Z,3.42
2023-05-27T05:44:43.913Z,3.67
2023-05-27T05:47:13.557Z,5.18
2023-05-27T05:49:43.405Z,3.33
2023-05-27T05:54:45.178Z,3.20
2023-05-27T05:57:14.329Z,2.73
2023-05-27T05:59:43.438Z,2.30
2023-05-27T06:02:13.694Z,5.78
2023-05-27T06:04:42.973Z,3.67
2023-05-27T06:07:12.523Z,5.15
2023-05-27T06:10:07.521Z,5.28
2023-05-27T06:12:46.777Z,5.95
2023-05-27T06:15:18.572Z,8.77
2023-05-27T06:17:48.680Z,6.30
2023-05-27T06:20:18.397Z,7.70
2023-05-27T06:22:48.592Z,12.43
2023-05-27T06:25:54.490Z,6.40
2023-05-27T06:28:24.994Z,8.30
2023-05-27T06:30:54.317Z,6.22
2023-05-27T06:33:23.670Z,5.68
2023-05-27T06:35:52.983Z,8.50
2023-05-27T06:38:22.392Z,7.38
2023-05-27T06:41:02.381Z,8.52
2023-05-27T06:43:32.124Z,9.35
2023-05-27T06:46:14.044Z,6.13
2023-05-27T06:48:54.882Z,6.30
2023-05-27T06:51:24.820Z,5.00
2023-05-27T06:53:56.365Z,6.28
2023-05-27T06:56:32.507Z,8.18
2023-05-27T06:59:30.610Z,4.80
2023-05-27T07:02:00.046Z,7.85
2023-05-27T07:04:29.658Z,6.55
2023-05-27T07:07:01.750Z,8.00
2023-05-27T07:09:31.162Z,5.38
2023-05-27T07:12:02.073Z,9.40
2023-05-27T07:15:07.852Z,9.73
2023-05-27T07:17:38.472Z,9.27
2023-05-27T07:20:09.301Z,4.85
2023-05-27T07:22:38.490Z,7.30
2023-05-27T07:25:08.591Z,5.15
2023-05-27T07:27:40.778Z,6.45
2023-05-27T07:30:11.551Z,7.55
2023-05-27T07:32:54.830Z,9.00
2023-05-27T07:35:24.179Z,5.95
2023-05-27T07:37:53.293Z,6.93
2023-05-27T07:40:22.530Z,6.78
2023-05-27T07:42:53.299Z,6.50
2023-05-27T07:45:23.772Z,12.75
2023-05-27T07:47:53.105Z,7.22
2023-05-27T07:50:22.247Z,5.57
2023-05-27T07:53:00.726Z,8.10
2023-05-27T07:55:32.416Z,5.15
2023-05-27T07:58:03.104Z,5.53
2023-05-27T08:00:42.447Z,7.72
2023-05-27T08:03:12.144Z,6.18
2023-05-27T08:05:59.306Z,6.80
2023-05-27T08:08:45.818Z,5.72
2023-05-27T08:11:35.148Z,7.00
2023-05-27T08:14:25.847Z,5.20
2023-05-27T08:17:15.364Z,6.40
2023-05-27T08:20:04.941Z,6.30
2023-05-27T08:22:48.187Z,8.40
2023-05-27T08:25:35.728Z,9.60
2023-05-27T08:28:20.488Z,9.00
2023-05-27T08:31:11.494Z,9.60
2023-05-27T08:33:43.770Z,6.22
2023-05-27T08:36:16.266Z,10.25
2023-05-27T08:38:48.389Z,8.25
2023-05-27T08:41:28.194Z,7.82
2023-05-27T08:44:11.795Z,10.82
2023-05-27T08:46:51.779Z,6.13
2023-05-27T08:49:21.918Z,5.32
2023-05-27T08:51:54.922Z,7.75
2023-05-27T08:54:24.959Z,9.20
2023-05-27T08:59:27.423Z,7.30
2023-05-27T09:01:59.472Z,6.43
2023-05-27T09:04:29.213Z,6.10
2023-05-27T09:06:58.206Z,5.80
2023-05-27T09:09:28.070Z,6.55
2023-05-27T09:12:01.985Z,8.10
2023-05-27T09:14:31.569Z,8.85
2023-05-27T09:17:08.562Z,8.27
2023-05-27T09:19:37.682Z,8.13
2023-05-27T09:22:06.837Z,7.60
2023-05-27T09:24:35.904Z,8.27
2023-05-27T09:27:05.491Z,8.75
2023-05-27T09:29:35.986Z,9.52
2023-05-27T09:32:09.188Z,10.63
2023-05-27T09:34:41.278Z,9.48
2023-05-27T09:37:15.953Z,9.27
2023-05-27T09:39:45.061Z,10.70
2023-05-27T09:42:14.322Z,8.05
2023-05-27T09:44:43.353Z,11.23
2023-05-27T09:47:14.053Z,11.15
2023-05-27T09:49:44.968Z,10.73
2023-05-27T09:52:15.682Z,9.15
2023-05-27T09:54:46.200Z,12.73
2023-05-27T09:57:17.124Z,10.60
2023-05-27T09:59:48.242Z,12.95
2023-05-27T10:02:22.581Z,10.05
2023-05-27T10:04:52.545Z,8.35
2023-05-27T10:07:31.306Z,10.82
2023-05-27T10:10:02.912Z,7.85
2023-05-27T10:12:32.083Z,11.25
2023-05-27T10:15:01.178Z,9.55
2023-05-27T10:17:43.015Z,11.13
2023-05-27T10:20:13.186Z,14.50
2023-05-27T10:22:46.493Z,13.38
2023-05-27T10:25:16.031Z,15.18
2023-05-27T10:27:46.983Z,13.32
2023-05-27T10:30:16.956Z,13.52
2023-05-27T10:32:53.549Z,16.13
2023-05-27T10:35:23.904Z,14.95
2023-05-27T10:37:53.081Z,10.68
2023-05-27T10:40:27.288Z,11.20
2023-05-27T10:43:03.318Z,11.18
2023-05-27T10:45:36.696Z,9.13
2023-05-27T10:48:17.849Z,8.57
2023-05-27T10:50:53.063Z,11.57
2023-05-27T10:53:22.858Z,8.05
2023-05-27T10:55:52.788Z,10.38
2023-05-27T10:58:23.205Z,8.98
2023-05-27T11:00:53.756Z,10.38
2023-05-27T11:03:26.430Z,7.65
2023-05-27T11:06:03.809Z,9.15
2023-05-27T11:08:33.786Z,8.32
2023-05-27T11:11:03.812Z,7.40
2023-05-27T11:13:34.234Z,7.43
2023-05-27T11:16:05.639Z,6.00
2023-05-27T11:21:09.260Z,7.05
2023-05-27T11:23:41.032Z,8.00
2023-05-27T11:26:14.929Z,3.78
2023-05-27T11:28:51.965Z,6.25
2023-05-27T11:31:21.955Z,6.25
2023-05-27T11:33:53.629Z,6.43
2023-05-27T11:36:23.460Z,7.07
2023-05-27T11:38:56.895Z,5.68
2023-05-27T11:41:28.024Z,8.50
2023-05-27T11:43:59.428Z,5.32
2023-05-27T11:49:07.598Z,9.95
2023-05-27T11:51:38.779Z,10.60
2023-05-27T11:54:08.347Z,7.53
2023-05-27T11:56:37.656Z,7.13
2023-05-27T11:59:07.064Z,9.15
2023-05-27T12:01:36.635Z,8.75
2023-05-27T12:04:07.229Z,7.95
2023-05-27T12:06:37.181Z,8.80
2023-05-27T12:09:07.604Z,9.52
2023-05-27T12:11:36.897Z,8.33
2023-05-27T12:14:06.197Z,9.55
2023-05-27T12:16:35.433Z,8.15
2023-05-27T12:19:06.140Z,7.68
2023-05-27T12:21:35.426Z,8.27
2023-05-27T12:24:05.004Z,7.82
2023-05-27T12:26:34.127Z,10.88
2023-05-27T12:29:03.385Z,10.45
2023-05-27T12:31:32.706Z,8.30
2023-05-27T12:34:01.820Z,10.63
2023-05-27T12:36:33.106Z,9.15
2023-05-27T12:39:02.286Z,8.30
2023-05-27T12:41:31.559Z,9.38
2023-05-27T12:44:00.823Z,7.32
2023-05-27T12:46:29.953Z,10.60
2023-05-27T12:49:01.231Z,7.78
2023-05-27T12:51:33.724Z,8.95
2023-05-27T12:54:02.941Z,10.25
2023-05-27T12:56:32.310Z,11.55
2023-05-27T12:59:01.437Z,7.32
2023-05-27T13:01:30.690Z,5.78
2023-05-27T13:04:00.071Z,4.10
2023-05-27T13:06:29.274Z,5.60
2023-05-27T13:08:59.829Z,6.45
2023-05-27T13:11:29.045Z,7.25
2023-05-27T13:13:58.137Z,3.80
2023-05-27T13:16:27.265Z,7.50
2023-05-27T13:18:56.333Z,7.43
2023-05-27T13:21:25.642Z,3.53
2023-05-27T13:23:55.229Z,4.07
2023-05-27T13:26:26.657Z,5.72
2023-05-27T13:28:55.856Z,3.85
2023-05-27T13:31:25.502Z,4.68
2023-05-27T13:33:54.579Z,3.28
2023-05-27T13:36:24.275Z,3.30
2023-05-27T13:38:53.347Z,4.70
2023-05-27T13:41:22.411Z,5.68
2023-05-27T13:43:52.950Z,6.25
2023-05-27T13:46:22.233Z,5.77
2023-05-27T13:48:51.347Z,3.90
2023-05-27T13:51:20.549Z,3.53
2023-05-27T13:53:50.344Z,5.78
2023-05-27T13:56:19.471Z,5.22
2023-05-27T13:58:48.591Z,3.40
2023-05-27T14:01:19.153Z,5.07
2023-05-27T14:03:48.549Z,8.68
2023-05-27T14:06:17.665Z,7.35
2023-05-27T14:08:46.776Z,8.00
2023-05-27T14:11:15.871Z,5.75
2023-05-27T14:13:44.959Z,5.03
2023-05-27T14:16:14.044Z,5.28
2023-05-27T14:18:44.779Z,4.30
2023-05-27T14:21:13.866Z,5.90
2023-05-27T14:23:42.976Z,6.85
2023-05-27T14:26:12.174Z,6.10
2023-05-27T14:28:41.250Z,4.88
2023-05-27T14:31:10.468Z,8.05
2023-05-27T14:33:39.612Z,4.32
2023-05-27T14:36:10.373Z,5.80
2023-05-27T14:38:39.817Z,6.10
2023-05-27T14:41:08.964Z,5.97
2023-05-27T14:43:38.039Z,6.32
2023-05-27T14:46:07.250Z,5.88
2023-05-27T14:48:36.747Z,6.47
2023-05-27T14:51:06.221Z,5.80
2023-05-27T14:53:36.663Z,5.25
2023-05-27T14:56:06.110Z,6.27
2023-05-27T14:58:35.995Z,8.75
2023-05-27T15:01:05.617Z,5.30
2023-05-27T15:03:34.930Z,6.50
2023-05-27T15:06:04.443Z,4.82
2023-05-27T15:08:33.512Z,6.13
2023-05-27T15:11:04.315Z,5.00
2023-05-27T15:13:33.607Z,3.70
2023-05-27T15:16:02.631Z,3.80
2023-05-27T15:18:32.070Z,7.13
2023-05-27T15:21:01.414Z,8.65
2023-05-27T15:23:30.724Z,6.68
2023-05-27T15:26:00.103Z,9.05
2023-05-27T15:28:31.961Z,5.00
2023-05-27T15:31:01.170Z,5.10
2023-05-27T15:33:30.336Z,4.18
2023-05-27T15:35:59.466Z,4.57
2023-05-27T15:38:28.934Z,4.85
2023-05-27T15:40:58.080Z,4.30
2023-05-27T15:43:27.197Z,5.30
2023-05-27T15:46:04.999Z,3.10
2023-05-27T15:48:34.628Z,5.10
2023-05-27T15:51:03.706Z,5.88
2023-05-27T15:53:33.853Z,2.05
2023-05-27T15:56:02.959Z,3.88
2023-05-27T15:58:32.045Z,2.22
2023-05-27T16:01:02.533Z,3.20
2023-05-27T16:03:32.988Z,2.45
2023-05-27T16:06:02.891Z,4.50
2023-05-27T16:08:32.006Z,3.35
2023-05-27T16:11:01.286Z,3.17
2023-05-27T16:13:30.453Z,2.10
2023-05-27T16:15:59.659Z,2.13
2023-05-27T16:18:30.291Z,2.30
2023-05-27T16:20:59.903Z,2.38
2023-05-27T16:23:29.041Z,3.53
2023-05-27T16:25:58.110Z,2.47
2023-05-27T16:28:27.216Z,3.75
2023-05-27T16:30:56.309Z,3.95
2023-05-27T16:33:25.742Z,3.58
2023-05-27T16:35:56.341Z,3.55
2023-05-27T16:38:25.781Z,2.08
2023-05-27T16:40:54.866Z,2.97
2023-05-27T16:43:23.906Z,2.53
2023-05-27T16:45:53.059Z,2.83
2023-05-27T16:48:22.140Z,4.95
2023-05-27T16:50:51.443Z,3.17
2023-05-27T16:53:22.046Z,4.07
2023-05-27T16:55:51.133Z,3.33
2023-05-27T16:58:20.297Z,2.92
2023-05-27T17:00:58.394Z,3.30
2023-05-27T17:03:28.453Z,2.88
2023-05-27T17:05:58.397Z,4.30
2023-05-27T17:08:28.982Z,4.00
2023-05-27T17:10:58.279Z,4.67
2023-05-27T17:13:27.408Z,4.45
2023-05-27T17:15:57.005Z,3.67
2023-05-27T17:18:28.195Z,6.80
2023-05-27T17:20:57.651Z,3.42
2023-05-27T17:23:28.343Z,5.10
2023-05-27T17:25:57.477Z,7.20
2023-05-27T17:28:26.984Z,5.07
2023-05-27T17:30:56.268Z,4.03
2023-05-27T17:33:26.264Z,3.45
2023-05-27T17:35:55.601Z,4.25
2023-05-27T17:38:27.973Z,4.07
2023-05-27T17:40:58.640Z,6.05
2023-05-27T17:43:29.552Z,6.05
2023-05-27T17:45:59.341Z,2.92
2023-05-27T17:48:28.471Z,3.88
2023-05-27T17:50:57.811Z,6.18
2023-05-27T17:53:26.931Z,4.85
2023-05-27T17:55:57.465Z,4.50
2023-05-27T17:58:26.865Z,6.77
2023-05-27T18:00:56.213Z,4.07
2023-05-27T18:03:25.623Z,5.95
2023-05-27T18:05:54.832Z,4.28
2023-05-27T18:08:23.948Z,4.22
2023-05-27T18:10:53.684Z,5.88
2023-05-27T18:13:24.437Z,2.42
2023-05-27T18:15:54.444Z,2.17
2023-05-27T18:18:23.524Z,4.63
2023-05-27T18:20:54.269Z,8.50
2023-05-27T18:23:23.644Z,6.10
2023-05-27T18:25:52.709Z,5.63
2023-05-27T18:28:23.133Z,5.70
2023-05-27T18:30:52.449Z,4.10
2023-05-27T18:33:21.831Z,3.13
2023-05-27T18:35:51.071Z,5.15
2023-05-27T18:38:20.185Z,5.95
2023-05-27T18:40:52.316Z,4.20
2023-05-27T18:43:23.693Z,4.93
2023-05-27T18:45:56.136Z,3.73
2023-05-27T18:48:26.766Z,3.50
2023-05-27T18:50:57.168Z,7.10
2023-05-27T18:53:26.914Z,4.00
2023-05-27T18:55:56.409Z,4.25
2023-05-27T18:58:26.896Z,2.88
2023-05-27T19:00:56.123Z,3.15
2023-05-27T19:03:25.215Z,4.43
2023-05-27T19:05:54.361Z,5.35
2023-05-27T19:08:23.514Z,4.35
2023-05-27T19:10:52.817Z,5.82
2023-05-27T19:13:22.346Z,3.30
2023-05-27T19:15:52.979Z,4.40
2023-05-27T19:18:22.082Z,3.75
2023-05-27T19:20:51.380Z,5.05
2023-05-27T19:23:20.713Z,4.35
2023-05-27T19:25:49.818Z,5.75
2023-05-27T19:28:18.911Z,6.68
2023-05-27T19:30:48.058Z,6.15
2023-05-27T19:33:18.595Z,9.05
2023-05-27T19:35:48.535Z,9.35
2023-05-27T19:38:17.726Z,6.43
2023-05-27T19:40:46.886Z,6.25
2023-05-27T19:43:16.033Z,5.75
2023-05-27T19:45:45.229Z,4.15
2023-05-27T19:48:15.414Z,4.53
2023-05-27T19:50:45.948Z,5.30
2023-05-27T19:53:15.217Z,4.63
2023-05-27T19:55:46.577Z,3.75
2023-05-27T20:00:45.596Z,6.70
2023-05-27T20:03:14.779Z,5.85
2023-05-27T20:05:45.438Z,3.50
2023-05-27T20:08:14.559Z,4.03
2023-05-27T20:10:43.672Z,3.65
2023-05-27T20:13:12.879Z,5.25
2023-05-27T20:15:42.005Z,4.07
2023-05-27T20:18:11.507Z,5.90
2023-05-27T20:20:40.926Z,5.18
2023-05-27T20:23:14.603Z,8.80
2023-05-27T20:25:45.802Z,4.50
2023-05-27T20:28:15.803Z,5.32
2023-05-27T20:30:47.033Z,4.93
2023-05-27T20:33:16.797Z,5.57
2023-05-27T20:35:46.628Z,5.65
2023-05-27T20:38:20.572Z,5.85
2023-05-27T20:40:49.881Z,7.75
2023-05-27T20:43:19.319Z,6.93
2023-05-27T20:45:48.714Z,4.28
2023-05-27T20:48:17.837Z,5.10
2023-05-27T20:50:47.189Z,3.85
2023-05-27T20:53:16.411Z,4.05
2023-05-27T20:55:47.461Z,3.55
2023-05-27T20:58:16.635Z,3.92
2023-05-27T21:00:47.731Z,4.55
2023-05-27T21:03:17.479Z,6.20
2023-05-27T21:05:48.325Z,4.88
2023-05-27T21:10:49.421Z,3.78
2023-05-27T21:13:21.872Z,2.60
2023-05-27T21:15:51.327Z,4.00
2023-05-27T21:18:28.066Z,4.82
2023-05-27T21:20:57.575Z,4.55
2023-05-27T21:23:27.017Z,4.40
2023-05-27T21:25:58.346Z,5.20
2023-05-27T21:28:27.531Z,9.30
2023-05-27T21:30:57.046Z,6.63
2023-05-27T21:33:27.583Z,8.07
2023-05-27T21:35:59.737Z,5.75
2023-05-27T21:38:32.686Z,8.73
2023-05-27T21:41:03.334Z,6.45
2023-05-27T21:43:33.226Z,8.23
2023-05-27T21:46:02.924Z,5.20
2023-05-27T21:48:32.261Z,5.78
2023-05-27T21:51:01.813Z,9.27
2023-05-27T21:53:31.552Z,7.55
2023-05-27T21:56:02.017Z,8.35
2023-05-27T21:58:31.113Z,9.90
2023-05-27T22:01:00.296Z,7.82
2023-05-27T22:03:32.500Z,11.50
2023-05-27T22:06:01.729Z,10.45
2023-05-27T22:08:31.040Z,10.85
2023-05-27T22:11:00.164Z,7.22
2023-05-27T22:13:30.804Z,8.98
2023-05-27T22:16:02.144Z,7.47
2023-05-27T22:18:31.848Z,10.27
2023-05-27T22:21:00.979Z,10.98
2023-05-27T22:23:30.176Z,10.85
2023-05-27T22:25:59.311Z,7.80
2023-05-27T22:28:28.568Z,8.27
2023-05-27T22:30:59.124Z,10.35
2023-05-27T22:33:29.924Z,8.35
2023-05-27T22:35:59.726Z,9.30
2023-05-27T22:38:28.831Z,7.22
2023-05-27T22:40:57.956Z,7.47
2023-05-27T22:43:27.037Z,10.32
2023-05-27T22:45:56.189Z,10.38
2023-05-27T22:48:26.744Z,6.68
2023-05-27T22:50:56.159Z,10.67
2023-05-27T22:53:25.257Z,9.13
2023-05-27T22:55:54.647Z,11.15
2023-05-27T22:58:23.920Z,9.73
2023-05-27T23:00:53.072Z,10.98
2023-05-27T23:03:22.280Z,12.52
2023-05-27T23:05:52.873Z,12.73
2023-05-27T23:08:22.088Z,12.60
2023-05-27T23:10:51.567Z,8.77
2023-05-27T23:13:20.987Z,18.88
2023-05-27T23:15:50.109Z,10.93
2023-05-27T23:18:19.212Z,12.85
2023-05-27T23:20:48.616Z,9.80
2023-05-27T23:23:19.075Z,12.77
2023-05-27T23:25:48.138Z,11.00
2023-05-27T23:28:17.221Z,12.18
2023-05-27T23:30:46.476Z,9.38
2023-05-27T23:33:15.700Z,10.57
2023-05-27T23:35:44.789Z,10.75
2023-05-27T23:38:13.886Z,10.95
2023-05-27T23:40:44.886Z,11.27
2023-05-27T23:43:14.105Z,10.38
2023-05-27T23:45:43.208Z,10.50
2023-05-27T23:48:12.372Z,15.75
2023-05-27T23:50:41.436Z,12.15
2023-05-27T23:53:10.581Z,13.63
2023-05-27T23:55:39.603Z,13.70
2023-05-27T23:58:10.185Z,14.90
